createdAt,value
2023-04-19T00:01:44.931Z,101849.40
2023-04-19T00:04:13.390Z,101854.46
2023-04-19T00:06:43.484Z,101849.59
2023-04-19T00:09:11.525Z,101860.19
2023-04-19T00:11:39.559Z,101847.59
2023-04-19T00:14:07.575Z,101854.98
2023-04-19T00:16:35.736Z,101844.06
2023-04-19T00:19:03.779Z,101842.73
2023-04-19T00:21:32.811Z,101841.22
2023-04-19T00:24:00.832Z,101841.22
2023-04-19T00:26:28.758Z,101837.20
2023-04-19T00:28:56.941Z,101836.35
2023-04-19T00:31:25.122Z,101834.03
2023-04-19T00:33:53.274Z,101834.84
2023-04-19T00:36:21.313Z,101835.70
2023-04-19T00:38:49.310Z,101827.49
2023-04-19T00:41:17.616Z,101824.28
2023-04-19T00:43:45.563Z,101825.46
2023-04-19T00:46:13.653Z,101823.14
2023-04-19T00:48:41.921Z,101824.61
2023-04-19T00:51:12.027Z,101821.77
2023-04-19T00:53:40.428Z,101828.63
2023-04-19T00:56:08.520Z,101819.22
2023-04-19T00:58:36.600Z,101832.33
2023-04-19T01:01:04.570Z,101827.49
2023-04-19T01:03:32.798Z,101820.59
2023-04-19T01:06:00.930Z,101813.49
2023-04-19T01:08:28.931Z,101823.23
2023-04-19T01:10:56.934Z,101810.13
2023-04-19T01:13:25.098Z,101815.52
2023-04-19T01:15:53.118Z,101807.91
2023-04-19T01:18:21.092Z,101812.68
2023-04-19T01:20:49.088Z,101811.47
2023-04-19T01:23:17.128Z,101816.90
2023-04-19T01:25:45.172Z,101810.65
2023-04-19T01:28:13.389Z,101803.26
2023-04-19T01:30:41.552Z,101799.20
2023-04-19T01:33:09.471Z,101801.23
2023-04-19T01:35:37.720Z,101794.89
2023-04-19T01:38:06.868Z,101791.49
2023-04-19T01:40:35.016Z,101791.49
2023-04-19T01:43:03.013Z,101789.17
2023-04-19T01:45:30.984Z,101783.45
2023-04-19T01:48:00.471Z,101782.63
2023-04-19T01:50:28.623Z,101777.73
2023-04-19T01:52:56.582Z,101775.21
2023-04-19T01:55:24.510Z,101771.52
2023-04-19T01:57:54.702Z,101773.51
2023-04-19T02:00:23.306Z,101772.85
2023-04-19T02:02:51.712Z,101774.59
2023-04-19T02:05:19.776Z,101779.42
2023-04-19T02:07:47.814Z,101769.68
2023-04-19T02:10:15.876Z,101770.86
2023-04-19T02:12:44.325Z,101772.85
2023-04-19T02:15:12.363Z,101775.41
2023-04-19T02:17:40.533Z,101775.41
2023-04-19T02:20:12.310Z,101765.14
2023-04-19T02:22:40.299Z,101762.29
2023-04-19T02:25:08.600Z,101765.98
2023-04-19T02:27:36.645Z,101762.29
2023-04-19T02:30:04.806Z,101766.84
2023-04-19T02:32:33.213Z,101760.59
2023-04-19T02:35:01.318Z,101763.14
2023-04-19T02:37:29.275Z,101765.98
2023-04-19T02:39:57.243Z,101751.50
2023-04-19T02:42:25.277Z,101760.30
2023-04-19T02:44:53.293Z,101761.97
2023-04-19T02:47:21.384Z,101756.77
2023-04-19T02:49:49.385Z,101749.90
2023-04-19T02:52:17.457Z,101761.64
2023-04-19T02:54:45.376Z,101755.59
2023-04-19T02:57:13.379Z,101749.90
2023-04-19T02:59:41.447Z,101755.27
2023-04-19T03:02:09.445Z,101751.24
2023-04-19T03:04:37.789Z,101745.03
2023-04-19T03:07:05.833Z,101752.09
2023-04-19T03:09:33.944Z,101753.59
2023-04-19T03:12:02.658Z,101753.27
2023-04-19T03:14:30.612Z,101742.15
2023-04-19T03:16:58.574Z,101749.90
2023-04-19T03:19:26.498Z,101749.90
2023-04-19T03:21:54.423Z,101743.66
2023-04-19T03:24:28.478Z,101743.98
2023-04-19T03:26:56.975Z,101739.63
2023-04-19T03:29:25.006Z,101741.14
2023-04-19T03:31:52.932Z,101734.60
2023-04-19T03:34:20.879Z,101738.30
2023-04-19T03:36:48.934Z,101741.14
2023-04-19T03:39:16.987Z,101741.14
2023-04-19T03:41:44.924Z,101738.59
2023-04-19T03:44:13.077Z,101735.74
2023-04-19T03:46:41.228Z,101730.88
2023-04-19T03:49:09.254Z,101727.99
2023-04-19T03:51:37.298Z,101726.33
2023-04-19T03:54:05.463Z,101722.63
2023-04-19T03:56:33.382Z,101727.70
2023-04-19T03:59:01.395Z,101723.65
2023-04-19T04:01:29.543Z,101727.05
2023-04-19T04:03:57.749Z,101727.05
2023-04-19T04:06:25.998Z,101720.48
2023-04-19T04:08:53.983Z,101722.17
2023-04-19T04:11:21.985Z,101720.48
2023-04-19T04:13:51.695Z,101723.35
2023-04-19T04:16:19.761Z,101724.17
2023-04-19T04:18:47.859Z,101725.02
2023-04-19T04:21:15.812Z,101735.61
2023-04-19T04:23:43.897Z,101732.21
2023-04-19T04:26:12.388Z,101731.07
2023-04-19T04:28:40.473Z,101737.45
2023-04-19T04:31:08.466Z,101729.70
2023-04-19T04:33:36.470Z,101740.62
2023-04-19T04:36:05.071Z,101740.29
2023-04-19T04:38:33.586Z,101732.34
2023-04-19T04:41:01.562Z,101739.44
2023-04-19T04:43:31.166Z,101739.44
2023-04-19T04:45:59.244Z,101738.59
2023-04-19T04:48:27.514Z,101738.30
2023-04-19T04:50:55.502Z,101745.48
2023-04-19T04:53:23.551Z,101746.63
2023-04-19T04:55:51.646Z,101739.24
2023-04-19T04:58:20.576Z,101753.53
2023-04-19T05:00:50.249Z,101743.10
2023-04-19T05:03:18.372Z,101736.20
2023-04-19T05:05:46.554Z,101743.30
2023-04-19T05:08:14.605Z,101738.39
2023-04-19T05:10:42.676Z,101738.39
2023-04-19T05:13:10.608Z,101740.91
2023-04-19T05:15:38.612Z,101744.63
2023-04-19T05:18:07.259Z,101746.96
2023-04-19T05:20:35.378Z,101742.94
2023-04-19T05:23:04.847Z,101740.91
2023-04-19T05:25:32.749Z,101750.69
2023-04-19T05:28:00.826Z,101746.34
2023-04-19T05:30:28.882Z,101746.01
2023-04-19T05:32:57.075Z,101742.28
2023-04-19T05:35:25.060Z,101750.03
2023-04-19T05:37:53.149Z,101751.73
2023-04-19T05:40:21.163Z,101751.38
2023-04-19T05:42:49.088Z,101745.68
2023-04-19T05:45:17.755Z,101748.01
2023-04-19T05:47:45.770Z,101750.55
2023-04-19T05:50:13.813Z,101748.20
2023-04-19T05:52:42.012Z,101752.74
2023-04-19T05:55:10.076Z,101758.47
2023-04-19T05:57:38.094Z,101749.38
2023-04-19T06:00:06.619Z,101756.11
2023-04-19T06:02:34.710Z,101750.42
2023-04-19T06:05:09.915Z,101751.57
2023-04-19T06:07:43.275Z,101758.11
2023-04-19T06:10:15.154Z,101768.70
2023-04-19T06:12:43.104Z,101751.90
2023-04-19T06:15:11.529Z,101757.62
2023-04-19T06:17:39.628Z,101760.13
2023-04-19T06:20:09.564Z,101758.11
2023-04-19T06:22:42.714Z,101757.81
2023-04-19T06:25:10.881Z,101757.45
2023-04-19T06:27:39.016Z,101760.00
2023-04-19T06:30:07.582Z,101759.64
2023-04-19T06:32:35.653Z,101771.97
2023-04-19T06:35:03.867Z,101769.59
2023-04-19T06:37:31.879Z,101764.22
2023-04-19T06:39:59.881Z,101768.77
2023-04-19T06:42:28.834Z,101761.64
2023-04-19T06:44:58.525Z,101762.91
2023-04-19T06:47:26.651Z,101768.15
2023-04-19T06:49:55.046Z,101771.19
2023-04-19T06:52:23.551Z,101768.08
2023-04-19T06:54:52.241Z,101776.29
2023-04-19T06:57:20.281Z,101778.58
2023-04-19T06:59:48.553Z,101783.41
2023-04-19T07:02:16.677Z,101779.03
2023-04-19T07:04:45.006Z,101774.85
2023-04-19T07:07:13.297Z,101778.02
2023-04-19T07:09:41.519Z,101782.89
2023-04-19T07:12:09.576Z,101778.67
2023-04-19T07:14:37.636Z,101780.70
2023-04-19T07:17:06.905Z,101772.95
2023-04-19T07:19:36.855Z,101772.95
2023-04-19T07:22:04.895Z,101781.52
2023-04-19T07:24:32.968Z,101781.23
2023-04-19T07:27:01.345Z,101782.04
2023-04-19T07:29:29.431Z,101773.97
2023-04-19T07:31:57.554Z,101780.87
2023-04-19T07:34:25.583Z,101772.63
2023-04-19T07:36:53.726Z,101777.17
2023-04-19T07:39:21.893Z,101773.97
2023-04-19T07:41:49.877Z,101773.15
2023-04-19T07:44:18.190Z,101770.63
2023-04-19T07:46:46.840Z,101775.50
2023-04-19T07:49:15.235Z,101770.80
2023-04-19T07:51:43.175Z,101777.37
2023-04-19T07:54:11.785Z,101776.84
2023-04-19T07:56:39.726Z,101773.84
2023-04-19T07:59:09.292Z,101765.27
2023-04-19T08:01:38.435Z,101766.94
2023-04-19T08:04:06.976Z,101770.66
2023-04-19T08:06:35.206Z,101774.85
2023-04-19T08:09:03.416Z,101764.29
2023-04-19T08:11:31.435Z,101767.13
2023-04-19T08:14:09.367Z,101772.49
2023-04-19T08:19:18.341Z,101764.94
2023-04-19T08:21:46.456Z,101760.40
2023-04-19T08:24:14.689Z,101762.62
2023-04-19T08:26:42.777Z,101762.62
2023-04-19T08:29:10.890Z,101760.43
2023-04-19T08:31:38.949Z,101765.34
2023-04-19T08:34:06.985Z,101762.45
2023-04-19T08:36:41.051Z,101763.83
2023-04-19T08:39:24.572Z,101760.62
2023-04-19T08:42:07.518Z,101757.23
2023-04-19T08:44:58.922Z,101766.34
2023-04-19T08:47:33.621Z,101754.58
2023-04-19T08:52:51.946Z,101751.54
2023-04-19T08:55:22.727Z,101755.75
2023-04-19T08:57:51.052Z,101754.77
2023-04-19T09:00:19.700Z,101757.29
2023-04-19T09:02:54.779Z,101755.27
2023-04-19T09:05:23.412Z,101746.70
2023-04-19T09:07:51.736Z,101747.19
2023-04-19T09:10:20.907Z,101747.71
2023-04-19T09:13:06.130Z,101748.20
2023-04-19T09:15:41.649Z,101744.51
2023-04-19T09:18:13.758Z,101742.84
2023-04-19T09:20:43.133Z,101731.39
2023-04-19T09:23:13.922Z,101739.14
2023-04-19T09:26:11.300Z,101743.69
2023-04-19T09:28:30.481Z,101734.56
2023-04-19T09:31:10.579Z,101733.75
2023-04-19T09:33:47.098Z,101732.24
2023-04-19T09:36:32.972Z,101726.69
2023-04-19T09:39:01.168Z,101725.18
2023-04-19T09:41:29.188Z,101713.58
2023-04-19T09:44:15.544Z,101712.89
2023-04-19T09:46:46.935Z,101718.61
2023-04-19T09:49:22.994Z,101722.17
2023-04-19T09:51:56.292Z,101719.46
2023-04-19T09:54:26.091Z,101712.40
2023-04-19T09:56:57.104Z,101711.71
2023-04-19T09:59:26.417Z,101707.36
2023-04-19T10:01:57.825Z,101707.52
2023-04-19T10:04:41.713Z,101710.86
2023-04-19T10:09:53.031Z,101705.99
2023-04-19T10:12:51.589Z,101704.29
2023-04-19T10:15:13.416Z,101698.57
2023-04-19T10:17:41.528Z,101697.06
2023-04-19T10:20:12.445Z,101693.89
2023-04-19T10:22:40.538Z,101691.87
2023-04-19T10:25:13.243Z,101693.40
2023-04-19T10:27:42.158Z,101691.21
2023-04-19T10:30:19.436Z,101690.69
2023-04-19T10:32:57.562Z,101682.09
2023-04-19T10:35:46.062Z,101688.66
2023-04-19T10:38:16.514Z,101692.68
2023-04-19T10:40:54.199Z,101685.59
2023-04-19T10:43:26.933Z,101677.80
2023-04-19T10:45:54.997Z,101678.63
2023-04-19T10:48:31.900Z,101678.30
2023-04-19T10:51:16.131Z,101665.64
2023-04-19T10:54:16.384Z,101658.22
2023-04-19T10:57:04.106Z,101657.99
2023-04-19T10:59:45.764Z,101652.86
2023-04-19T11:02:29.831Z,101654.00
2023-04-19T11:04:57.776Z,101648.22
2023-04-19T11:07:26.006Z,101645.17
2023-04-19T11:09:54.349Z,101646.16
2023-04-19T11:12:22.724Z,101638.08
2023-04-19T11:14:54.194Z,101638.93
2023-04-19T11:17:28.974Z,101634.81
2023-04-19T11:19:57.149Z,101629.45
2023-04-19T11:22:41.159Z,101635.30
2023-04-19T11:25:15.931Z,101633.60
2023-04-19T11:27:45.404Z,101629.32
2023-04-19T11:30:21.507Z,101628.76
2023-04-19T11:32:59.181Z,101626.21
2023-04-19T11:35:28.964Z,101619.45
2023-04-19T11:37:57.763Z,101621.17
2023-04-19T11:40:27.494Z,101612.58
2023-04-19T11:42:56.884Z,101612.58
2023-04-19T11:45:36.657Z,101609.96
2023-04-19T11:48:08.609Z,101615.68
2023-04-19T11:50:43.614Z,101607.28
2023-04-19T11:53:15.935Z,101601.39
2023-04-19T11:55:52.435Z,101600.61
2023-04-19T11:58:38.574Z,101595.09
2023-04-19T12:01:10.945Z,101593.88
2023-04-19T12:03:52.064Z,101584.95
2023-04-19T12:06:27.122Z,101591.03
2023-04-19T12:08:55.986Z,101585.80
2023-04-19T12:11:26.420Z,101587.83
2023-04-19T12:14:10.611Z,101582.43
2023-04-19T12:16:38.696Z,101580.41
2023-04-19T12:19:16.434Z,101586.75
2023-04-19T12:21:44.841Z,101584.39
2023-04-19T12:24:13.680Z,101584.52
2023-04-19T12:26:56.860Z,101585.18
2023-04-19T12:29:24.896Z,101586.35
2023-04-19T12:31:52.919Z,101577.55
2023-04-19T12:34:21.058Z,101588.19
2023-04-19T12:36:49.101Z,101579.95
2023-04-19T12:39:17.377Z,101581.12
2023-04-19T12:41:45.621Z,101576.35
2023-04-19T12:44:13.601Z,101568.60
2023-04-19T12:46:41.558Z,101568.27
2023-04-19T12:49:09.517Z,101563.83
2023-04-19T12:51:37.541Z,101565.52
2023-04-19T12:54:05.606Z,101558.27
2023-04-19T12:56:33.648Z,101559.41
2023-04-19T12:59:01.753Z,101555.85
2023-04-19T13:01:30.072Z,101550.98
2023-04-19T13:03:59.362Z,101551.14
2023-04-19T13:06:29.282Z,101545.42
2023-04-19T13:09:00.802Z,101543.36
2023-04-19T13:11:29.421Z,101538.09
2023-04-19T13:13:57.428Z,101537.41
2023-04-19T13:16:25.588Z,101534.89
2023-04-19T13:18:56.011Z,101531.20
2023-04-19T13:21:25.290Z,101525.08
2023-04-19T13:23:53.841Z,101519.49
2023-04-19T13:26:21.993Z,101521.59
2023-04-19T13:28:50.208Z,101514.03
2023-04-19T13:31:18.285Z,101510.66
2023-04-19T13:33:46.365Z,101507.33
2023-04-19T13:36:14.365Z,101509.68
2023-04-19T13:38:42.359Z,101502.29
2023-04-19T13:41:11.070Z,101499.05
2023-04-19T13:43:39.128Z,101500.95
2023-04-19T13:46:07.883Z,101493.89
2023-04-19T13:48:35.965Z,101489.34
2023-04-19T13:51:04.327Z,101483.82
2023-04-19T13:53:32.601Z,101471.66
2023-04-19T13:56:00.605Z,101474.63
2023-04-19T13:58:28.644Z,101473.81
2023-04-19T14:00:56.752Z,101466.26
2023-04-19T14:03:25.404Z,101460.87
2023-04-19T14:05:53.490Z,101463.55
2023-04-19T14:08:22.360Z,101457.30
2023-04-19T14:10:51.732Z,101453.73
2023-04-19T14:13:19.777Z,101449.65
2023-04-19T14:15:48.121Z,101450.24
2023-04-19T14:18:16.253Z,101447.72
2023-04-19T14:20:44.193Z,101445.01
2023-04-19T14:23:12.707Z,101446.19
2023-04-19T14:25:40.755Z,101448.90
2023-04-19T14:28:09.081Z,101441.15
2023-04-19T14:30:37.105Z,101425.72
2023-04-19T14:33:05.339Z,101436.67
2023-04-19T14:35:33.340Z,101438.34
2023-04-19T14:38:01.373Z,101430.82
2023-04-19T14:40:29.374Z,101423.27
2023-04-19T14:42:57.390Z,101423.13
2023-04-19T14:45:25.434Z,101426.37
2023-04-19T14:47:53.509Z,101415.71
2023-04-19T14:50:22.855Z,101420.26
2023-04-19T14:52:50.904Z,101416.43
2023-04-19T14:55:19.036Z,101409.37
2023-04-19T14:57:47.006Z,101416.76
2023-04-19T15:00:15.311Z,101410.71
2023-04-19T15:02:43.382Z,101408.16
2023-04-19T15:05:11.803Z,101409.04
2023-04-19T15:07:39.944Z,101410.71
2023-04-19T15:10:08.683Z,101409.17
2023-04-19T15:12:36.688Z,101404.27
2023-04-19T15:15:05.056Z,101398.16
2023-04-19T15:17:33.084Z,101406.07
2023-04-19T15:20:01.167Z,101405.34
2023-04-19T15:22:29.320Z,101405.02
2023-04-19T15:24:57.385Z,101403.95
2023-04-19T15:27:25.354Z,101400.15
2023-04-19T15:29:53.497Z,101404.14
2023-04-19T15:32:21.790Z,101403.91
2023-04-19T15:34:49.784Z,101404.53
2023-04-19T15:37:18.046Z,101402.99
2023-04-19T15:39:46.175Z,101411.27
2023-04-19T15:42:14.345Z,101393.71
2023-04-19T15:44:44.138Z,101407.05
2023-04-19T15:47:12.402Z,101414.99
2023-04-19T15:49:42.046Z,101419.90
2023-04-19T15:52:10.481Z,101414.53
2023-04-19T15:54:39.066Z,101413.45
2023-04-19T15:57:07.138Z,101425.12
2023-04-19T15:59:35.106Z,101420.68
2023-04-19T16:02:03.236Z,101422.28
2023-04-19T16:04:32.214Z,101428.46
2023-04-19T16:07:00.475Z,101424.84
2023-04-19T16:09:28.516Z,101435.52
2023-04-19T16:11:56.466Z,101436.93
2023-04-19T16:14:25.180Z,101439.19
2023-04-19T16:16:55.096Z,101438.57
2023-04-19T16:19:26.539Z,101434.91
2023-04-19T16:21:54.600Z,101440.70
2023-04-19T16:24:22.582Z,101434.68
2023-04-19T16:26:50.656Z,101442.42
2023-04-19T16:29:19.157Z,101440.27
2023-04-19T16:31:48.985Z,101438.93
2023-04-19T16:34:18.529Z,101438.96
2023-04-19T16:36:46.926Z,101433.59
2023-04-19T16:39:15.047Z,101439.84
2023-04-19T16:41:43.179Z,101450.30
2023-04-19T16:44:11.998Z,101449.84
2023-04-19T16:46:40.184Z,101444.45
2023-04-19T16:49:08.497Z,101447.00
2023-04-19T16:51:36.475Z,101443.51
2023-04-19T16:54:04.500Z,101446.41
2023-04-19T16:56:32.539Z,101440.04
2023-04-19T16:59:00.468Z,101438.17
2023-04-19T17:01:28.540Z,101441.90
2023-04-19T17:03:57.025Z,101448.12
2023-04-19T17:06:25.136Z,101443.41
2023-04-19T17:08:53.207Z,101438.53
2023-04-19T17:11:21.186Z,101444.78
2023-04-19T17:13:49.161Z,101442.59
2023-04-19T17:16:17.425Z,101435.36
2023-04-19T17:18:45.444Z,101447.46
2023-04-19T17:21:14.399Z,101452.17
2023-04-19T17:23:42.575Z,101447.46
2023-04-19T17:26:10.660Z,101446.74
2023-04-19T17:28:38.672Z,101447.79
2023-04-19T17:31:06.752Z,101446.41
2023-04-19T17:33:34.810Z,101456.16
2023-04-19T17:36:02.859Z,101464.53
2023-04-19T17:38:30.909Z,101468.02
2023-04-19T17:40:59.924Z,101469.37
2023-04-19T17:43:28.009Z,101475.35
2023-04-19T17:45:56.302Z,101479.21
2023-04-19T17:48:24.277Z,101478.52
2023-04-19T17:50:52.306Z,101490.95
2023-04-19T17:53:20.360Z,101487.58
2023-04-19T17:55:48.467Z,101488.76
2023-04-19T17:58:16.635Z,101490.06
2023-04-19T18:00:44.760Z,101494.02
2023-04-19T18:03:13.001Z,101503.41
2023-04-19T18:05:41.759Z,101496.15
2023-04-19T18:08:09.994Z,101514.03
2023-04-19T18:10:38.037Z,101512.49
2023-04-19T18:13:06.122Z,101514.32
2023-04-19T18:15:34.144Z,101517.63
2023-04-19T18:18:02.206Z,101521.78
2023-04-19T18:20:30.373Z,101524.23
2023-04-19T18:23:01.301Z,101536.43
2023-04-19T18:25:32.845Z,101539.04
2023-04-19T18:28:00.995Z,101534.59
2023-04-19T18:30:29.254Z,101535.35
2023-04-19T18:32:57.364Z,101541.49
2023-04-19T18:35:25.494Z,101538.45
2023-04-19T18:37:53.595Z,101540.22
2023-04-19T18:40:21.626Z,101541.40
2023-04-19T18:42:49.679Z,101540.58
2023-04-19T18:45:17.985Z,101540.16
2023-04-19T18:47:46.139Z,101549.31
2023-04-19T18:50:18.629Z,101555.36
2023-04-19T18:52:47.428Z,101550.95
2023-04-19T18:55:15.510Z,101551.86
2023-04-19T18:57:43.572Z,101556.30
2023-04-19T19:00:12.608Z,101553.23
2023-04-19T19:02:41.430Z,101558.20
2023-04-19T19:05:13.090Z,101556.08
2023-04-19T19:07:42.843Z,101557.68
2023-04-19T19:12:42.569Z,101560.33
2023-04-19T19:15:11.090Z,101561.24
2023-04-19T19:17:39.365Z,101564.41
2023-04-19T19:20:08.114Z,101563.23
2023-04-19T19:22:36.219Z,101565.07
2023-04-19T19:25:04.252Z,101565.88
2023-04-19T19:27:32.324Z,101566.51
2023-04-19T19:30:00.585Z,101567.98
2023-04-19T19:32:28.779Z,101563.76
2023-04-19T19:35:01.774Z,101567.45
2023-04-19T19:37:32.550Z,101575.76
2023-04-19T19:40:04.049Z,101576.19
2023-04-19T19:42:34.899Z,101581.35
2023-04-19T19:45:05.897Z,101575.43
2023-04-19T19:47:36.486Z,101583.41
2023-04-19T19:50:50.600Z,101576.68
2023-04-19T19:52:53.777Z,101581.61
2023-04-19T19:55:21.856Z,101586.45
2023-04-19T19:58:23.733Z,101577.72
2023-04-19T20:00:46.140Z,101578.34
2023-04-19T20:03:16.735Z,101582.34
2023-04-19T20:05:52.868Z,101588.12
2023-04-19T20:08:21.214Z,101585.38
2023-04-19T20:10:49.334Z,101577.46
2023-04-19T20:13:17.716Z,101584.91
2023-04-19T20:15:48.524Z,101585.77
2023-04-19T20:18:16.762Z,101575.01
2023-04-19T20:20:44.833Z,101575.01
2023-04-19T20:23:12.814Z,101579.03
2023-04-19T20:25:40.800Z,101576.68
2023-04-19T20:28:10.665Z,101572.16
2023-04-19T20:30:38.724Z,101578.70
2023-04-19T20:33:06.890Z,101568.34
2023-04-19T20:35:37.840Z,101568.77
2023-04-19T20:38:05.939Z,101572.20
2023-04-19T20:40:34.428Z,101571.12
2023-04-19T20:43:02.501Z,101558.70
2023-04-19T20:45:31.198Z,101551.11
2023-04-19T20:47:59.960Z,101561.93
2023-04-19T20:50:28.099Z,101558.66
2023-04-19T20:52:56.168Z,101550.75
2023-04-19T20:55:24.295Z,101546.30
2023-04-19T20:57:52.538Z,101543.98
2023-04-19T21:00:20.792Z,101543.45
2023-04-19T21:02:48.926Z,101540.91
2023-04-19T21:05:17.345Z,101537.31
2023-04-19T21:07:45.433Z,101542.48
2023-04-19T21:10:13.548Z,101547.87
2023-04-19T21:12:42.086Z,101544.14
2023-04-19T21:15:10.596Z,101549.51
2023-04-19T21:17:38.591Z,101546.37
2023-04-19T21:20:13.320Z,101542.67
2023-04-19T21:22:42.238Z,101537.02
2023-04-19T21:25:11.014Z,101537.24
2023-04-19T21:27:39.049Z,101546.59
2023-04-19T21:30:07.734Z,101531.55
2023-04-19T21:32:35.830Z,101535.22
2023-04-19T21:35:03.976Z,101540.05
2023-04-19T21:37:32.063Z,101535.55
2023-04-19T21:40:00.087Z,101535.02
2023-04-19T21:42:28.100Z,101529.89
2023-04-19T21:44:56.191Z,101527.86
2023-04-19T21:47:24.336Z,101528.25
2023-04-19T21:49:52.862Z,101529.10
2023-04-19T21:52:21.016Z,101521.71
2023-04-19T21:54:50.071Z,101516.35
2023-04-19T21:57:20.839Z,101501.34
2023-04-19T21:59:48.829Z,101500.23
2023-04-19T22:02:16.920Z,101501.93
2023-04-19T22:04:46.065Z,101495.10
2023-04-19T22:07:14.138Z,101508.14
2023-04-19T22:09:42.234Z,101503.96
2023-04-19T22:12:11.034Z,101505.17
2023-04-19T22:14:39.226Z,101493.50
2023-04-19T22:17:07.328Z,101492.94
2023-04-19T22:19:35.545Z,101493.82
2023-04-19T22:22:03.752Z,101486.37
2023-04-19T22:24:31.889Z,101480.35
2023-04-19T22:27:00.119Z,101470.38
2023-04-19T22:29:28.071Z,101473.78
2023-04-19T22:31:56.036Z,101474.08
2023-04-19T22:34:24.078Z,101465.87
2023-04-19T22:36:52.135Z,101460.73
2023-04-19T22:39:20.125Z,101462.83
2023-04-19T22:41:48.118Z,101471.63
2023-04-19T22:44:16.166Z,101467.41
2023-04-19T22:46:45.174Z,101456.38
2023-04-19T22:49:13.259Z,101448.70
2023-04-19T22:51:43.698Z,101448.41
2023-04-19T22:54:11.941Z,101448.08
2023-04-19T22:56:40.734Z,101437.36
2023-04-19T22:59:09.734Z,101443.24
2023-04-19T23:01:37.815Z,101445.17
2023-04-19T23:04:05.949Z,101436.31
2023-04-19T23:06:33.948Z,101430.13
2023-04-19T23:09:02.108Z,101425.29
2023-04-19T23:11:31.301Z,101422.97
2023-04-19T23:13:59.360Z,101423.85
2023-04-19T23:16:27.561Z,101423.52
2023-04-19T23:18:56.364Z,101414.99
2023-04-19T23:21:24.478Z,101413.00
2023-04-19T23:23:52.492Z,101399.95
2023-04-19T23:26:20.465Z,101402.18
2023-04-19T23:28:48.565Z,101397.96
2023-04-19T23:31:16.649Z,101399.13
2023-04-19T23:33:44.757Z,101396.81
2023-04-19T23:36:12.720Z,101392.27
2023-04-19T23:38:40.741Z,101376.64
2023-04-19T23:41:12.140Z,101378.08
2023-04-19T23:43:40.103Z,101377.26
2023-04-19T23:46:08.487Z,101377.03
2023-04-19T23:48:36.653Z,101370.20
2023-04-19T23:51:04.572Z,101376.70
2023-04-19T23:53:32.865Z,101363.37
2023-04-19T23:56:00.859Z,101364.51
2023-04-19T23:58:28.879Z,101359.37
